createdAt,value
2019-04-23T00:00:25.064Z,0.00
2019-04-23T00:02:29.762Z,0.00
2019-04-23T00:03:36.875Z,0.00
2019-04-23T00:04:28.973Z,0.00
2019-04-23T00:05:41.415Z,0.00
2019-04-23T00:07:51.835Z,0.00
2019-04-23T00:08:36.520Z,0.00
2019-04-23T00:09:34.923Z,0.00
2019-04-23T00:10:30.146Z,0.00
2019-04-23T00:11:35.609Z,0.00
2019-04-23T00:12:34.369Z,0.00
2019-04-23T00:13:37.114Z,0.00
2019-04-23T00:14:37.985Z,0.00
2019-04-23T00:15:25.215Z,0.00
2019-04-23T00:16:29.852Z,0.00
2019-04-23T00:18:36.917Z,0.00
2019-04-23T00:19:32.967Z,0.00
2019-04-23T00:20:25.681Z,0.00
2019-04-23T00:21:34.588Z,0.00
2019-04-23T00:22:30.014Z,0.00
2019-04-23T00:23:35.149Z,0.00
2019-04-23T00:24:54.431Z,0.00
2019-04-23T00:25:44.961Z,0.00
2019-04-23T00:26:37.209Z,0.00
2019-04-23T00:29:36.770Z,0.00
2019-04-23T00:30:36.883Z,0.00
2019-04-23T00:31:44.387Z,0.00
2019-04-23T00:33:30.248Z,0.00
2019-04-23T00:34:33.362Z,0.00
2019-04-23T00:35:37.146Z,0.00
2019-04-23T00:36:32.724Z,0.00
2019-04-23T00:38:34.956Z,0.00
2019-04-23T00:39:36.130Z,0.00
2019-04-23T00:40:32.082Z,0.00
2019-04-23T00:41:30.863Z,0.00
2019-04-23T00:43:27.206Z,0.00
2019-04-23T00:44:34.969Z,0.00
2019-04-23T00:45:32.670Z,0.00
2019-04-23T00:47:36.833Z,0.00
2019-04-23T00:49:32.545Z,0.00
2019-04-23T00:50:42.870Z,0.00
2019-04-23T00:51:32.415Z,0.00
2019-04-23T00:53:35.647Z,0.00
2019-04-23T00:54:35.737Z,0.00
2019-04-23T00:55:28.178Z,0.00
2019-04-23T00:56:44.695Z,0.00
2019-04-23T00:57:42.532Z,0.00
2019-04-23T00:58:36.526Z,0.00
2019-04-23T00:59:42.221Z,0.00
2019-04-23T01:00:33.682Z,0.00
2019-04-23T01:01:36.884Z,0.00
2019-04-23T01:02:31.100Z,0.00
2019-04-23T01:03:27.378Z,0.00
2019-04-23T01:04:31.621Z,0.00
2019-04-23T01:05:31.216Z,0.00
2019-04-23T01:06:47.649Z,0.00
2019-04-23T01:07:34.924Z,0.00
2019-04-23T01:08:33.268Z,0.00
2019-04-23T01:09:29.619Z,0.00
2019-04-23T01:10:27.096Z,0.00
2019-04-23T01:11:36.384Z,0.00
2019-04-23T01:12:38.003Z,0.00
2019-04-23T01:13:31.563Z,0.00
2019-04-23T01:14:27.057Z,0.00
2019-04-23T01:15:34.114Z,0.00
2019-04-23T01:16:31.755Z,0.00
2019-04-23T01:17:37.839Z,0.00
2019-04-23T01:18:45.270Z,0.00
2019-04-23T01:19:48.387Z,0.00
2019-04-23T01:20:28.533Z,0.00
2019-04-23T01:21:09.636Z,0.00
2019-04-23T01:22:08.378Z,0.00
2019-04-23T01:23:07.465Z,0.00
2019-04-23T01:24:12.250Z,0.00
2019-04-23T01:25:18.212Z,0.00
2019-04-23T01:26:31.341Z,0.00
2019-04-23T01:27:49.976Z,0.00
2019-04-23T01:28:35.659Z,0.00
2019-04-23T01:29:37.723Z,0.00
2019-04-23T01:30:32.881Z,0.00
2019-04-23T01:31:33.270Z,0.00
2019-04-23T01:33:43.549Z,0.00
2019-04-23T01:34:40.494Z,0.00
2019-04-23T01:36:54.658Z,0.00
2019-04-23T01:37:36.722Z,0.00
2019-04-23T01:38:39.834Z,0.00
2019-04-23T01:39:33.024Z,0.00
2019-04-23T01:41:35.964Z,0.00
2019-04-23T01:43:36.486Z,0.00
2019-04-23T01:44:37.482Z,0.00
2019-04-23T01:45:27.339Z,0.00
2019-04-23T01:46:36.010Z,0.00
2019-04-23T01:47:38.891Z,0.00
2019-04-23T01:48:38.012Z,0.00
2019-04-23T01:49:41.619Z,0.00
2019-04-23T01:50:36.848Z,0.00
2019-04-23T01:51:39.972Z,0.00
2019-04-23T01:52:41.793Z,0.00
2019-04-23T01:53:33.538Z,0.00
2019-04-23T01:54:38.563Z,0.00
2019-04-23T01:55:34.713Z,0.00
2019-04-23T01:57:37.764Z,0.00
2019-04-23T01:59:31.877Z,0.00
2019-04-23T02:00:37.060Z,0.00
2019-04-23T02:01:32.749Z,0.00
2019-04-23T02:02:49.821Z,0.00
2019-04-23T02:03:34.696Z,0.00
2019-04-23T02:04:39.621Z,0.00
2019-04-23T02:05:52.840Z,0.00
2019-04-23T02:06:36.681Z,0.00
2019-04-23T02:07:39.264Z,0.00
2019-04-23T02:08:32.043Z,0.00
2019-04-23T02:09:36.084Z,0.00
2019-04-23T02:10:39.581Z,0.00
2019-04-23T02:11:34.252Z,0.00
2019-04-23T02:13:38.733Z,0.00
2019-04-23T02:14:34.810Z,0.00
2019-04-23T02:15:47.747Z,0.00
2019-04-23T02:16:38.819Z,0.00
2019-04-23T02:17:38.755Z,0.00
2019-04-23T02:18:47.834Z,0.00
2019-04-23T02:19:44.733Z,0.00
2019-04-23T02:20:38.782Z,0.00
2019-04-23T02:21:36.583Z,0.00
2019-04-23T02:22:38.752Z,0.00
2019-04-23T02:24:39.731Z,0.00
2019-04-23T02:26:33.905Z,0.00
2019-04-23T02:27:36.639Z,0.00
2019-04-23T02:28:41.493Z,0.00
2019-04-23T02:29:44.619Z,0.00
2019-04-23T02:32:45.730Z,0.00
2019-04-23T02:33:44.656Z,0.00
2019-04-23T02:36:54.450Z,0.00
2019-04-23T02:37:53.755Z,0.00
2019-04-23T02:38:45.231Z,0.00
2019-04-23T02:40:08.786Z,0.00
2019-04-23T02:40:53.385Z,0.00
2019-04-23T02:43:36.492Z,0.00
2019-04-23T02:45:48.808Z,0.00
2019-04-23T02:46:41.240Z,0.00
2019-04-23T02:47:46.780Z,0.00
2019-04-23T02:48:44.404Z,0.00
2019-04-23T02:51:48.980Z,0.00
2019-04-23T02:52:37.096Z,0.00
2019-04-23T02:53:55.606Z,0.00
2019-04-23T02:55:43.301Z,0.00
2019-04-23T02:56:51.410Z,0.00
2019-04-23T02:57:43.760Z,0.00
2019-04-23T02:58:44.003Z,0.00
2019-04-23T02:59:58.287Z,0.00
2019-04-23T03:01:36.036Z,0.00
2019-04-23T03:02:47.749Z,0.00
2019-04-23T03:03:58.050Z,0.00
2019-04-23T03:04:42.110Z,0.00
2019-04-23T03:06:52.220Z,0.00
2019-04-23T03:07:45.633Z,0.00
2019-04-23T03:08:42.784Z,0.00
2019-04-23T03:10:40.386Z,0.00
2019-04-23T03:11:40.571Z,0.00
2019-04-23T03:12:37.982Z,0.00
2019-04-23T03:14:40.211Z,0.00
2019-04-23T03:15:50.154Z,0.00
2019-04-23T03:16:45.964Z,0.00
2019-04-23T03:17:49.681Z,0.00
2019-04-23T03:19:38.325Z,0.00
2019-04-23T03:20:53.177Z,0.00
2019-04-23T03:22:49.441Z,0.00
2019-04-23T03:24:44.075Z,0.00
2019-04-23T03:25:38.185Z,4.00
2019-04-23T03:26:57.381Z,4.00
2019-04-23T03:27:37.594Z,0.00
2019-04-23T03:28:51.784Z,0.00
2019-04-23T03:31:25.277Z,0.00
2019-04-23T03:34:34.978Z,4.00
2019-04-23T03:36:10.746Z,4.00
2019-04-23T03:37:42.333Z,8.00
2019-04-23T03:38:45.730Z,8.00
2019-04-23T03:40:39.177Z,8.00
2019-04-23T03:41:41.749Z,12.00
2019-04-23T03:42:42.727Z,12.00
2019-04-23T03:43:39.059Z,16.00
2019-04-23T03:45:56.332Z,20.00
2019-04-23T03:49:43.788Z,28.00
2019-04-23T03:50:43.603Z,28.00
2019-04-23T03:51:43.374Z,32.00
2019-04-23T03:52:55.179Z,36.00
2019-04-23T03:53:52.805Z,40.00
2019-04-23T03:57:06.063Z,52.00
2019-04-23T03:57:40.348Z,56.00
2019-04-23T03:58:47.848Z,64.00
2019-04-23T04:01:38.748Z,72.00
2019-04-23T04:02:52.567Z,80.00
2019-04-23T04:06:52.435Z,100.00
2019-04-23T04:08:40.640Z,116.00
2019-04-23T04:09:45.895Z,120.00
2019-04-23T04:10:47.648Z,128.00
2019-04-23T04:12:40.008Z,140.00
2019-04-23T04:13:42.401Z,144.00
2019-04-23T04:14:56.692Z,156.00
2019-04-23T04:16:42.580Z,172.00
2019-04-23T04:17:41.666Z,176.00
2019-04-23T04:18:54.241Z,184.00
2019-04-23T04:19:44.467Z,192.00
2019-04-23T04:21:41.383Z,208.00
2019-04-23T04:22:50.052Z,212.00
2019-04-23T04:24:48.663Z,232.00
2019-04-23T04:25:39.334Z,244.00
2019-04-23T04:26:50.965Z,248.00
2019-04-23T04:27:45.828Z,256.00
2019-04-23T04:29:47.202Z,276.00
2019-04-23T04:30:49.342Z,280.00
2019-04-23T04:31:52.394Z,292.00
2019-04-23T04:33:49.019Z,312.00
2019-04-23T04:35:12.897Z,320.00
2019-04-23T04:35:27.197Z,336.00
2019-04-23T04:37:24.290Z,356.00
2019-04-23T04:39:42.799Z,404.00
2019-04-23T04:40:42.306Z,420.00
2019-04-23T04:41:40.366Z,432.00
2019-04-23T04:42:33.026Z,448.00
2019-04-23T04:43:50.826Z,460.00
2019-04-23T04:44:43.359Z,464.00
2019-04-23T04:45:52.171Z,472.00
2019-04-23T04:46:45.597Z,484.00
2019-04-23T04:49:51.044Z,536.00
2019-04-23T04:50:45.980Z,556.00
2019-04-23T04:51:49.392Z,568.00
2019-04-23T04:55:47.477Z,652.00
2019-04-23T04:56:36.024Z,680.00
2019-04-23T04:57:56.678Z,708.00
2019-04-23T04:58:47.518Z,724.00
2019-04-23T04:59:50.367Z,744.00
2019-04-23T05:01:06.225Z,768.00
2019-04-23T05:01:36.850Z,784.00
2019-04-23T05:02:57.378Z,808.00
2019-04-23T05:04:57.685Z,844.00
2019-04-23T05:06:01.779Z,892.00
2019-04-23T05:06:44.390Z,940.00
2019-04-23T05:07:40.494Z,964.00
2019-04-23T05:08:39.689Z,992.00
2019-04-23T05:09:47.721Z,1000.00
2019-04-23T05:11:45.825Z,1072.00
2019-04-23T05:14:43.953Z,3188.00
2019-04-23T05:15:37.397Z,5492.00
2019-04-23T05:16:35.637Z,6672.00
2019-04-23T05:17:42.163Z,7008.00
2019-04-23T05:18:41.872Z,5864.00
2019-04-23T05:19:43.031Z,3132.00
2019-04-23T05:20:37.018Z,1668.00
2019-04-23T05:21:52.574Z,1364.00
2019-04-23T05:22:40.779Z,1388.00
2019-04-23T05:23:35.584Z,1512.00
2019-04-23T05:24:36.441Z,1956.00
2019-04-23T05:25:36.638Z,3516.00
2019-04-23T05:26:27.222Z,5044.00
2019-04-23T05:27:43.149Z,5596.00
2019-04-23T05:28:40.892Z,5824.00
2019-04-23T05:29:34.168Z,5764.00
2019-04-23T05:30:38.158Z,5832.00
2019-04-23T05:31:28.062Z,3612.00
2019-04-23T05:32:39.090Z,1908.00
2019-04-23T05:33:34.144Z,1728.00
2019-04-23T05:34:38.655Z,2392.00
2019-04-23T05:36:09.147Z,3784.00
2019-04-23T05:36:33.869Z,4752.00
2019-04-23T05:37:47.439Z,6372.00
2019-04-23T05:38:43.288Z,5308.00
2019-04-23T05:39:49.271Z,4224.00
2019-04-23T05:42:33.093Z,3736.00
2019-04-23T05:43:35.188Z,2864.00
2019-04-23T05:45:34.379Z,7072.00
2019-04-23T05:46:32.939Z,6704.00
2019-04-23T05:47:50.610Z,6576.00
2019-04-23T05:48:33.366Z,5908.00
2019-04-23T05:49:31.850Z,3364.00
2019-04-23T05:50:44.041Z,4496.00
2019-04-23T05:51:38.516Z,8752.00
2019-04-23T05:52:36.055Z,10876.00
2019-04-23T05:53:33.840Z,9724.00
2019-04-23T05:54:43.217Z,9176.00
2019-04-23T05:55:39.833Z,7972.00
2019-04-23T05:56:32.440Z,3796.00
2019-04-23T05:57:34.629Z,1952.00
2019-04-23T05:59:30.093Z,1928.00
2019-04-23T06:00:43.074Z,1948.00
2019-04-23T06:01:54.263Z,1960.00
2019-04-23T06:02:36.094Z,1976.00
2019-04-23T06:03:30.976Z,1980.00
2019-04-23T06:04:38.979Z,2008.00
2019-04-23T06:05:34.157Z,2028.00
2019-04-23T06:06:54.123Z,2052.00
2019-04-23T06:08:38.593Z,2084.00
2019-04-23T06:09:30.480Z,2104.00
2019-04-23T06:10:36.383Z,2144.00
2019-04-23T06:12:31.420Z,2188.00
2019-04-23T06:13:36.598Z,2200.00
2019-04-23T06:14:37.278Z,2212.00
2019-04-23T06:15:35.091Z,2232.00
2019-04-23T06:16:36.077Z,2268.00
2019-04-23T06:17:32.326Z,2280.00
2019-04-23T06:18:40.478Z,2288.00
2019-04-23T06:19:27.645Z,2324.00
2019-04-23T06:20:38.181Z,2340.00
2019-04-23T06:21:44.337Z,2368.00
2019-04-23T06:22:35.328Z,2372.00
2019-04-23T06:23:40.094Z,2384.00
2019-04-23T06:25:50.894Z,2436.00
2019-04-23T06:26:39.631Z,2444.00
2019-04-23T06:27:32.056Z,2476.00
2019-04-23T06:28:31.761Z,2500.00
2019-04-23T06:29:32.292Z,2520.00
2019-04-23T06:30:44.850Z,2532.00
2019-04-23T06:31:38.919Z,2552.00
2019-04-23T06:32:34.259Z,2576.00
2019-04-23T06:33:32.308Z,2612.00
2019-04-23T06:34:34.989Z,2612.00
2019-04-23T06:35:31.961Z,2624.00
2019-04-23T06:36:32.399Z,2644.00
2019-04-23T06:39:35.959Z,2704.00
2019-04-23T06:42:29.507Z,2744.00
2019-04-23T06:43:38.807Z,2764.00
2019-04-23T06:44:30.781Z,2776.00
2019-04-23T06:46:39.862Z,2800.00
2019-04-23T06:47:28.902Z,2796.00
2019-04-23T06:50:34.666Z,2840.00
2019-04-23T06:51:34.936Z,2848.00
2019-04-23T06:52:40.590Z,2868.00
2019-04-23T06:53:30.652Z,2880.00
2019-04-23T06:54:36.124Z,2892.00
2019-04-23T06:56:37.515Z,2940.00
2019-04-23T06:57:25.770Z,2924.00
2019-04-23T06:58:34.251Z,2940.00
2019-04-23T06:59:33.707Z,2968.00
2019-04-23T07:00:34.594Z,3000.00
2019-04-23T07:01:33.414Z,3008.00
2019-04-23T07:02:34.326Z,3016.00
2019-04-23T07:03:38.947Z,3024.00
2019-04-23T07:04:38.161Z,3020.00
2019-04-23T07:05:32.974Z,3008.00
2019-04-23T07:06:38.393Z,3020.00
2019-04-23T07:07:45.206Z,3020.00
2019-04-23T07:08:44.630Z,3024.00
2019-04-23T07:09:18.605Z,3036.00
2019-04-23T07:10:33.308Z,3048.00
2019-04-23T07:12:30.925Z,3060.00
2019-04-23T07:13:40.062Z,3064.00
2019-04-23T07:14:36.968Z,3092.00
2019-04-23T07:15:42.869Z,3104.00
2019-04-23T07:16:49.831Z,3124.00
2019-04-23T07:17:24.323Z,3144.00
2019-04-23T07:18:29.448Z,3160.00
2019-04-23T07:19:33.563Z,3172.00
2019-04-23T07:20:36.013Z,3200.00
2019-04-23T07:21:30.160Z,3212.00
2019-04-23T07:22:26.802Z,3264.00
2019-04-23T07:23:43.203Z,3388.00
2019-04-23T07:24:28.463Z,3592.00
2019-04-23T07:25:48.477Z,5148.00
2019-04-23T07:26:42.118Z,17376.00
2019-04-23T07:27:30.329Z,15584.00
2019-04-23T07:28:39.078Z,3768.00
2019-04-23T07:29:31.388Z,4388.00
2019-04-23T07:31:35.084Z,0.00
2019-04-23T07:32:31.270Z,50240.00
2019-04-23T07:33:38.248Z,40800.00
2019-04-23T07:34:28.480Z,15116.00
2019-04-23T07:35:33.266Z,4076.00
2019-04-23T07:37:32.545Z,3988.00
2019-04-23T07:38:40.906Z,4520.00
2019-04-23T07:39:35.567Z,5752.00
2019-04-23T07:41:37.832Z,27232.00
2019-04-23T07:42:30.607Z,10020.00
2019-04-23T07:43:28.243Z,4568.00
2019-04-23T07:44:36.832Z,7668.00
2019-04-23T07:45:35.054Z,42080.00
2019-04-23T07:46:41.959Z,42752.00
2019-04-23T07:47:25.141Z,31328.00
2019-04-23T07:48:22.274Z,22336.00
2019-04-23T07:49:34.356Z,20384.00
2019-04-23T07:51:36.846Z,3556.00
2019-04-23T07:52:38.641Z,3528.00
2019-04-23T07:54:45.654Z,3520.00
2019-04-23T07:55:43.328Z,3496.00
2019-04-23T07:56:31.949Z,3476.00
2019-04-23T07:57:53.617Z,3488.00
2019-04-23T07:58:29.271Z,3480.00
2019-04-23T07:59:41.249Z,3556.00
2019-04-23T08:01:30.739Z,3524.00
2019-04-23T08:02:31.657Z,3512.00
2019-04-23T08:03:40.446Z,3540.00
2019-04-23T08:04:37.366Z,3584.00
2019-04-23T08:06:31.511Z,6468.00
2019-04-23T08:07:41.086Z,12360.00
2019-04-23T08:08:30.286Z,13100.00
2019-04-23T08:09:34.422Z,5852.00
2019-04-23T08:12:33.961Z,5828.00
2019-04-23T08:13:37.540Z,9288.00
2019-04-23T08:14:34.297Z,7744.00
2019-04-23T08:16:33.946Z,7340.00
2019-04-23T08:17:31.210Z,5352.00
2019-04-23T08:18:43.762Z,4052.00
2019-04-23T08:19:32.900Z,5048.00
2019-04-23T08:21:30.579Z,3892.00
2019-04-23T08:22:32.384Z,3928.00
2019-04-23T08:23:38.525Z,3900.00
2019-04-23T08:24:28.993Z,3872.00
2019-04-23T08:25:35.839Z,3864.00
2019-04-23T08:26:50.211Z,3880.00
2019-04-23T08:27:29.289Z,3868.00
2019-04-23T08:28:41.987Z,3836.00
2019-04-23T08:29:26.834Z,3824.00
2019-04-23T08:30:25.547Z,3812.00
2019-04-23T08:32:47.234Z,3792.00
2019-04-23T08:33:42.229Z,3756.00
2019-04-23T08:34:36.950Z,3908.00
2019-04-23T08:35:35.148Z,3828.00
2019-04-23T08:36:39.517Z,3868.00
2019-04-23T08:37:34.708Z,3876.00
2019-04-23T08:38:36.246Z,3884.00
2019-04-23T08:39:37.232Z,3896.00
2019-04-23T08:40:40.746Z,3908.00
2019-04-23T08:41:33.860Z,3896.00
2019-04-23T08:42:42.778Z,3900.00
2019-04-23T08:43:51.771Z,3880.00
2019-04-23T08:44:38.866Z,3884.00
2019-04-23T08:45:28.011Z,3940.00
2019-04-23T08:46:46.260Z,3884.00
2019-04-23T08:47:29.742Z,3900.00
2019-04-23T08:49:35.843Z,3960.00
2019-04-23T08:50:32.668Z,3992.00
2019-04-23T08:51:45.896Z,3932.00
2019-04-23T08:52:46.044Z,3996.00
2019-04-23T08:53:37.387Z,4000.00
2019-04-23T08:54:47.061Z,3984.00
2019-04-23T08:56:31.870Z,3984.00
2019-04-23T08:57:29.020Z,3976.00
2019-04-23T08:58:31.969Z,4000.00
2019-04-23T09:00:33.747Z,4008.00
2019-04-23T09:01:35.615Z,4060.00
2019-04-23T09:02:35.297Z,4052.00
2019-04-23T09:03:40.916Z,4024.00
2019-04-23T09:04:30.967Z,4068.00
2019-04-23T09:06:30.806Z,4064.00
2019-04-23T09:07:27.645Z,4068.00
2019-04-23T09:08:49.734Z,4068.00
2019-04-23T09:09:39.796Z,4064.00
2019-04-23T09:10:33.988Z,4076.00
2019-04-23T09:13:50.276Z,4104.00
2019-04-23T09:14:23.117Z,4140.00
2019-04-23T09:17:53.078Z,4232.00
2019-04-23T09:18:29.139Z,4180.00
2019-04-23T09:19:32.126Z,4200.00
2019-04-23T09:20:27.756Z,4244.00
2019-04-23T09:21:29.279Z,4224.00
2019-04-23T09:23:37.278Z,4232.00
2019-04-23T09:24:33.288Z,4268.00
2019-04-23T09:26:40.096Z,4304.00
2019-04-23T09:27:46.282Z,4332.00
2019-04-23T09:28:54.677Z,4368.00
2019-04-23T09:29:57.928Z,4396.00
2019-04-23T09:30:48.744Z,4368.00
2019-04-23T09:32:07.635Z,4384.00
2019-04-23T09:32:47.353Z,4424.00
2019-04-23T09:34:54.240Z,4424.00
2019-04-23T09:35:48.386Z,4372.00
2019-04-23T09:36:51.117Z,6136.00
2019-04-23T09:37:48.822Z,17600.00
2019-04-23T09:38:49.859Z,9356.00
2019-04-23T09:42:08.990Z,23200.00
2019-04-23T09:44:03.091Z,17920.00
2019-04-23T09:45:05.272Z,15392.00
2019-04-23T09:46:07.750Z,21984.00
2019-04-23T09:47:06.548Z,18112.00
2019-04-23T09:48:01.092Z,24096.00
2019-04-23T09:49:11.698Z,17312.00
2019-04-23T09:50:06.734Z,25152.00
2019-04-23T09:51:02.463Z,18304.00
2019-04-23T09:52:09.499Z,35264.00
2019-04-23T09:53:29.110Z,21024.00
2019-04-23T09:54:05.903Z,26912.00
2019-04-23T09:55:05.971Z,24736.00
2019-04-23T09:55:51.474Z,23296.00
2019-04-23T09:56:57.470Z,16384.00
2019-04-23T09:58:06.416Z,19776.00
2019-04-23T09:59:08.855Z,17696.00
2019-04-23T10:00:25.487Z,17472.00
2019-04-23T10:00:52.679Z,13224.00
2019-04-23T10:01:49.827Z,18496.00
2019-04-23T10:02:53.050Z,22784.00
2019-04-23T10:03:49.344Z,11832.00
2019-04-23T10:04:48.613Z,15456.00
2019-04-23T10:05:46.450Z,16320.00
2019-04-23T10:06:38.930Z,23040.00
2019-04-23T10:07:46.213Z,16512.00
2019-04-23T10:08:38.159Z,24672.00
2019-04-23T10:09:34.274Z,16096.00
2019-04-23T10:10:34.311Z,18208.00
2019-04-23T10:11:34.620Z,11884.00
2019-04-23T10:12:33.640Z,23168.00
2019-04-23T10:13:34.317Z,18976.00
2019-04-23T10:14:34.413Z,11116.00
2019-04-23T10:15:38.860Z,10952.00
2019-04-23T10:16:34.383Z,8728.00
2019-04-23T10:17:34.045Z,8916.00
2019-04-23T10:18:33.230Z,6080.00
2019-04-23T10:19:33.060Z,7536.00
2019-04-23T10:20:34.372Z,4656.00
2019-04-23T10:21:33.411Z,4692.00
2019-04-23T10:22:35.842Z,4720.00
2019-04-23T10:23:33.494Z,4696.00
2019-04-23T10:24:32.949Z,4984.00
2019-04-23T10:25:34.141Z,4732.00
2019-04-23T10:26:34.352Z,6052.00
2019-04-23T10:27:33.009Z,7244.00
2019-04-23T10:28:33.839Z,8376.00
2019-04-23T10:29:34.256Z,10500.00
2019-04-23T10:30:33.023Z,24448.00
2019-04-23T10:31:33.487Z,15360.00
2019-04-23T10:32:33.517Z,12620.00
2019-04-23T10:33:34.071Z,13748.00
2019-04-23T10:34:43.014Z,25344.00
2019-04-23T10:35:44.439Z,24672.00
2019-04-23T10:36:34.562Z,17216.00
2019-04-23T10:37:42.716Z,23360.00
2019-04-23T10:38:34.620Z,16736.00
2019-04-23T10:39:37.156Z,24064.00
2019-04-23T10:40:38.189Z,18560.00
2019-04-23T10:41:35.811Z,17536.00
2019-04-23T10:42:35.924Z,10312.00
2019-04-23T10:43:38.228Z,4852.00
2019-04-23T10:44:35.280Z,4824.00
2019-04-23T10:45:51.390Z,14112.00
2019-04-23T10:46:57.707Z,22016.00
2019-04-23T10:48:11.666Z,11472.00
2019-04-23T10:49:11.320Z,17600.00
2019-04-23T10:50:05.524Z,17024.00
2019-04-23T10:50:55.399Z,20640.00
2019-04-23T10:52:07.131Z,14112.00
2019-04-23T10:53:10.230Z,22624.00
2019-04-23T10:54:59.309Z,15492.00
2019-04-23T10:56:00.703Z,22944.00
2019-04-23T10:57:01.676Z,13220.00
2019-04-23T10:58:02.760Z,24096.00
2019-04-23T10:58:58.449Z,24256.00
2019-04-23T11:00:05.122Z,23456.00
2019-04-23T11:01:04.500Z,14544.00
2019-04-23T11:02:16.007Z,18080.00
2019-04-23T11:03:12.283Z,22144.00
2019-04-23T11:04:10.252Z,10476.00
2019-04-23T11:06:06.642Z,5140.00
2019-04-23T11:07:02.818Z,6144.00
2019-04-23T11:07:53.689Z,5412.00
2019-04-23T11:09:10.191Z,5104.00
2019-04-23T11:10:03.679Z,5004.00
2019-04-23T11:11:12.360Z,5792.00
2019-04-23T11:12:16.301Z,5012.00
2019-04-23T11:13:25.750Z,4984.00
2019-04-23T11:14:07.090Z,4964.00
2019-04-23T11:15:08.593Z,5132.00
2019-04-23T11:16:27.425Z,5076.00
2019-04-23T11:17:07.643Z,5168.00
2019-04-23T11:17:52.053Z,5244.00
2019-04-23T11:20:07.713Z,5612.00
2019-04-23T11:21:09.154Z,5696.00
2019-04-23T11:22:24.761Z,7512.00
2019-04-23T11:22:56.885Z,5812.00
2019-04-23T11:24:15.791Z,5604.00
2019-04-23T11:25:16.153Z,5788.00
2019-04-23T11:25:55.984Z,5928.00
2019-04-23T11:27:09.977Z,6040.00
2019-04-23T11:28:10.271Z,6192.00
2019-04-23T11:29:01.119Z,7024.00
2019-04-23T11:30:11.920Z,10968.00
2019-04-23T11:30:54.941Z,14656.00
2019-04-23T11:32:19.368Z,24992.00
2019-04-23T11:35:13.954Z,50912.00
2019-04-23T11:36:43.643Z,60480.00
2019-04-23T11:38:20.977Z,64000.00
2019-04-23T11:38:21.970Z,64672.00
2019-04-23T11:39:17.086Z,59264.00
2019-04-23T11:40:59.910Z,4908.00
2019-04-23T11:42:06.747Z,12488.00
2019-04-23T11:44:02.311Z,59392.00
2019-04-23T11:45:06.986Z,46080.00
2019-04-23T11:46:11.217Z,12936.00
2019-04-23T11:47:04.175Z,5512.00
2019-04-23T11:48:22.378Z,5592.00
2019-04-23T11:49:20.324Z,21024.00
2019-04-23T11:50:12.239Z,50560.00
2019-04-23T11:51:41.109Z,54432.00
2019-04-23T11:53:06.669Z,50720.00
2019-04-23T11:54:05.760Z,51456.00
2019-04-23T11:55:03.161Z,53184.00
2019-04-23T11:56:02.674Z,52512.00
2019-04-23T11:57:22.171Z,51584.00
2019-04-23T11:59:06.922Z,51168.00
2019-04-23T12:00:02.107Z,54976.00
2019-04-23T12:01:11.777Z,2364.00
2019-04-23T12:02:12.180Z,2688.00
2019-04-23T12:02:54.353Z,3320.00
2019-04-23T12:05:17.271Z,25248.00
2019-04-23T12:06:07.878Z,54976.00
2019-04-23T12:06:59.718Z,51072.00
2019-04-23T12:07:57.048Z,31488.00
2019-04-23T12:09:02.492Z,7608.00
2019-04-23T12:10:16.351Z,11776.00
2019-04-23T12:11:35.863Z,32992.00
2019-04-23T12:12:01.525Z,4128.00
2019-04-23T12:13:10.502Z,3444.00
2019-04-23T12:14:10.262Z,47200.00
2019-04-23T12:15:03.627Z,44992.00
2019-04-23T12:16:06.679Z,44736.00
2019-04-23T12:17:50.795Z,46944.00
2019-04-23T12:18:05.461Z,44224.00
2019-04-23T12:19:29.122Z,34912.00
2019-04-23T12:20:06.278Z,24320.00
2019-04-23T12:20:57.505Z,13996.00
2019-04-23T12:23:17.934Z,5420.00
2019-04-23T12:24:10.694Z,5536.00
2019-04-23T12:26:03.708Z,5388.00
2019-04-23T12:27:06.250Z,5080.00
2019-04-23T12:27:47.036Z,4752.00
2019-04-23T12:29:12.685Z,4764.00
2019-04-23T12:30:03.126Z,4928.00
2019-04-23T12:30:57.317Z,5156.00
2019-04-23T12:32:18.082Z,5264.00
2019-04-23T12:33:06.663Z,5660.00
2019-04-23T12:35:04.225Z,5812.00
2019-04-23T12:36:04.875Z,5208.00
2019-04-23T12:37:22.648Z,3924.00
2019-04-23T12:38:02.063Z,4692.00
2019-04-23T12:39:05.241Z,4268.00
2019-04-23T12:40:05.935Z,4588.00
2019-04-23T12:40:55.933Z,4360.00
2019-04-23T12:44:03.301Z,3652.00
2019-04-23T12:45:06.947Z,3432.00
2019-04-23T12:45:57.141Z,3852.00
2019-04-23T12:47:09.077Z,3280.00
2019-04-23T12:49:34.069Z,2304.00
2019-04-23T12:50:32.401Z,2604.00
2019-04-23T12:51:17.528Z,3616.00
2019-04-23T12:52:04.806Z,3452.00
2019-04-23T12:53:19.681Z,2572.00
2019-04-23T12:53:59.397Z,2392.00
2019-04-23T12:55:06.807Z,4200.00
2019-04-23T12:56:21.218Z,5636.00
2019-04-23T12:57:05.298Z,13856.00
2019-04-23T12:58:01.645Z,19904.00
2019-04-23T12:58:56.290Z,27328.00
2019-04-23T13:01:06.776Z,8884.00
2019-04-23T13:02:03.380Z,4052.00
2019-04-23T13:02:55.473Z,2656.00
2019-04-23T13:03:50.487Z,2744.00
2019-04-23T13:05:00.553Z,3252.00
2019-04-23T13:05:53.998Z,3080.00
2019-04-23T13:07:03.280Z,3752.00
2019-04-23T13:08:00.469Z,3988.00
2019-04-23T13:09:00.886Z,2940.00
2019-04-23T13:09:58.621Z,3264.00
2019-04-23T13:11:01.241Z,3632.00
2019-04-23T13:12:03.129Z,4160.00
2019-04-23T13:13:09.169Z,4060.00
2019-04-23T13:14:00.362Z,3220.00
2019-04-23T13:15:02.875Z,3064.00
2019-04-23T13:16:03.561Z,2240.00
2019-04-23T13:17:11.494Z,2836.00
2019-04-23T13:19:06.202Z,3264.00
2019-04-23T13:20:03.700Z,3700.00
2019-04-23T13:21:01.602Z,3096.00
2019-04-23T13:22:07.811Z,2704.00
2019-04-23T13:23:03.153Z,2936.00
2019-04-23T13:23:55.050Z,2744.00
2019-04-23T13:25:01.976Z,2644.00
2019-04-23T13:25:57.142Z,2380.00
2019-04-23T13:26:56.088Z,2268.00
2019-04-23T13:28:19.696Z,2568.00
2019-04-23T13:29:00.894Z,2856.00
2019-04-23T13:30:06.768Z,3136.00
2019-04-23T13:31:02.374Z,3216.00
2019-04-23T13:32:00.846Z,3092.00
2019-04-23T13:33:21.111Z,3168.00
2019-04-23T13:33:58.468Z,3260.00
2019-04-23T13:35:08.450Z,3380.00
2019-04-23T13:37:01.569Z,2328.00
2019-04-23T13:38:57.022Z,2568.00
2019-04-23T13:40:00.143Z,2860.00
2019-04-23T13:42:06.192Z,3140.00
2019-04-23T13:43:07.389Z,2760.00
2019-04-23T13:45:04.950Z,2564.00
2019-04-23T13:46:14.024Z,2620.00
2019-04-23T13:47:06.702Z,2740.00
2019-04-23T13:48:06.271Z,2856.00
2019-04-23T13:48:57.480Z,2576.00
2019-04-23T13:50:09.620Z,1928.00
2019-04-23T13:52:05.913Z,1924.00
2019-04-23T13:53:59.767Z,2236.00
2019-04-23T13:55:09.173Z,2084.00
2019-04-23T13:56:06.243Z,2064.00
2019-04-23T13:58:09.717Z,2292.00
2019-04-23T13:59:03.602Z,2052.00
2019-04-23T14:00:21.128Z,1904.00
2019-04-23T14:01:23.412Z,1712.00
2019-04-23T14:02:07.581Z,1696.00
2019-04-23T14:02:54.797Z,1560.00
2019-04-23T14:04:24.747Z,1472.00
2019-04-23T14:04:59.693Z,1320.00
2019-04-23T14:06:04.875Z,1320.00
2019-04-23T14:07:59.705Z,1468.00
2019-04-23T14:10:04.515Z,1844.00
2019-04-23T14:11:05.558Z,1968.00
2019-04-23T14:12:00.734Z,2112.00
2019-04-23T14:13:16.902Z,2044.00
2019-04-23T14:15:03.616Z,1672.00
2019-04-23T14:16:04.526Z,1456.00
2019-04-23T14:17:08.579Z,1388.00
2019-04-23T14:18:19.256Z,1388.00
2019-04-23T14:20:01.046Z,1572.00
2019-04-23T14:21:02.671Z,1688.00
2019-04-23T14:22:13.586Z,1636.00
2019-04-23T14:23:08.336Z,1696.00
2019-04-23T14:24:07.913Z,1756.00
2019-04-23T14:25:05.812Z,1780.00
2019-04-23T14:27:03.508Z,1368.00
2019-04-23T14:28:13.905Z,1344.00
2019-04-23T14:29:01.218Z,1216.00
2019-04-23T14:30:07.282Z,1244.00
2019-04-23T14:31:08.038Z,1300.00
2019-04-23T14:32:08.931Z,1296.00
2019-04-23T14:33:02.786Z,1288.00
2019-04-23T14:34:09.052Z,1248.00
2019-04-23T14:36:00.842Z,1428.00
2019-04-23T14:38:17.355Z,988.00
2019-04-23T14:38:58.195Z,780.00
2019-04-23T14:40:02.514Z,764.00
2019-04-23T14:41:19.592Z,656.00
2019-04-23T14:42:12.384Z,628.00
2019-04-23T14:43:08.885Z,648.00
2019-04-23T14:44:00.715Z,712.00
2019-04-23T14:45:14.048Z,724.00
2019-04-23T14:48:05.959Z,844.00
2019-04-23T14:49:04.204Z,832.00
2019-04-23T14:50:26.340Z,760.00